Time;durP1;ratioP1;P1;durP2;ratioP2;P2;SDS_P1;SDS_P2;PMS_P1;PMS_P2;Temp;Humidity;BMP_temperature;BMP_pressure;BME280_temperature;BME280_humidity;BME280_pressure;Samples;Min_cycle;Max_cycle;Signal;HPM_P1;HPM_P2
2023/12/19 00:00:59;;;;;;;3.58;2.72;;;;;;;20.98;31.91;101455.63;4488666;28;20066;-54
2023/12/19 00:03:11;;;;;;;3.47;2.67;;;;;;;20.98;31.99;101446.19;4490836;28;20038;-51
2023/12/19 00:05:21;;;;;;;3.60;2.67;;;;;;;20.98;32.10;101449.88;4491716;28;21275;-51
2023/12/19 00:07:32;;;;;;;3.80;2.88;;;;;;;20.97;32.28;101451.09;4491694;28;20112;-51
2023/12/19 00:09:44;;;;;;;3.30;2.50;;;;;;;20.96;32.58;101455.16;4491305;28;20138;-51
2023/12/19 00:11:54;;;;;;;3.42;2.90;;;;;;;20.97;32.63;101442.47;4491504;28;20044;-51
2023/12/19 00:14:06;;;;;;;3.10;2.60;;;;;;;20.96;32.64;101449.44;4491018;28;20034;-51
2023/12/19 00:16:16;;;;;;;2.92;2.63;;;;;;;20.97;33.09;101451.09;4492040;28;20054;-51
2023/12/19 00:18:27;;;;;;;3.67;2.60;;;;;;;20.96;33.06;101455.16;4491635;28;20407;-54
2023/12/19 00:20:37;;;;;;;3.40;2.70;;;;;;;20.96;33.13;101449.44;4492112;28;20046;-51
2023/12/19 00:22:48;;;;;;;0.80;0.80;;;;;;;21.18;43.75;101456.84;4491840;28;20094;-51
2023/12/19 00:24:58;;;;;;;0.90;0.90;;;;;;;21.36;43.52;101444.84;4491487;28;20048;-53
2023/12/19 00:27:08;;;;;;;1.65;0.88;;;;;;;21.45;43.37;101437.00;4491321;28;20022;-52
2023/12/19 00:29:19;;;;;;;1.33;0.93;;;;;;;21.50;43.34;101433.88;4490547;28;20089;-53
2023/12/19 00:31:29;;;;;;;1.50;1.02;;;;;;;21.54;39.15;101437.75;4491792;28;20038;-52
2023/12/19 00:33:39;;;;;;;0.80;0.80;;;;;;;21.59;42.98;101440.41;4491315;28;20854;-53
2023/12/19 00:35:51;;;;;;;0.70;0.70;;;;;;;21.64;42.89;101450.81;4490810;28;20068;-51
2023/12/19 00:38:04;;;;;;;1.38;1.10;;;;;;;21.56;33.35;101458.34;4491281;28;20053;-53
2023/12/19 00:40:14;;;;;;;0.70;0.70;;;;;;;21.62;41.83;101451.19;4491070;28;20038;-51
2023/12/19 00:42:25;;;;;;;1.00;0.90;;;;;;;21.68;42.17;101461.25;4490732;28;27092;-51
2023/12/19 00:44:36;;;;;;;1.08;0.70;;;;;;;21.67;43.03;101456.69;4490810;28;20046;-51
2023/12/19 00:46:46;;;;;;;2.92;0.80;;;;;;;21.62;39.71;101442.56;4490480;28;20038;-51
2023/12/19 00:48:57;;;;;;;0.93;0.88;;;;;;;21.74;42.81;101451.19;4490860;28;20622;-52
2023/12/19 00:51:10;;;;;;;1.05;0.93;;;;;;;21.70;35.12;101444.50;4491449;28;20042;-51
2023/12/19 00:53:21;;;;;;;1.25;0.77;;;;;;;21.65;38.84;101464.84;4490812;28;20173;-53
2023/12/19 00:55:31;;;;;;;0.88;0.77;;;;;;;21.70;41.94;101467.50;4491606;28;20117;-51
2023/12/19 00:57:42;;;;;;;0.70;0.70;;;;;;;21.69;36.17;101468.66;4490416;28;32335;-51
2023/12/19 00:59:52;;;;;;;0.70;0.70;;;;;;;21.67;38.41;101459.56;4490600;28;20044;-54
2023/12/19 01:02:02;;;;;;;0.77;0.65;;;;;;;21.66;38.34;101469.38;4491340;28;21247;-54
2023/12/19 01:04:13;;;;;;;1.60;0.73;;;;;;;21.67;39.21;101471.06;4473034;28;20027;-55
2023/12/19 01:06:23;;;;;;;0.60;0.60;;;;;;;21.71;38.74;101472.03;4490308;28;20071;-51
2023/12/19 01:08:34;;;;;;;0.80;0.80;;;;;;;21.72;41.21;101462.19;4490407;28;20026;-52
2023/12/19 01:10:45;;;;;;;0.50;0.50;;;;;;;21.66;39.50;101463.63;4490435;28;20041;-51
2023/12/19 01:12:55;;;;;;;0.75;0.75;;;;;;;21.69;40.17;101457.16;4488769;28;20135;-51
2023/12/19 01:15:06;;;;;;;1.33;0.70;;;;;;;21.69;40.99;101457.16;4490101;28;20059;-52
2023/12/19 01:17:17;;;;;;;0.55;0.55;;;;;;;21.70;39.16;101458.03;4490412;28;20042;-52
2023/12/19 01:19:27;;;;;;;0.60;0.60;;;;;;;21.70;40.91;101446.53;4490145;28;20030;-51
2023/12/19 01:21:38;;;;;;;0.60;0.60;;;;;;;21.67;42.27;101439.47;4490681;28;20046;-51
2023/12/19 01:23:48;;;;;;;0.70;0.70;;;;;;;21.66;42.37;101446.38;4490469;28;20076;-54
2023/12/19 01:25:58;;;;;;;0.70;0.60;;;;;;;21.66;42.66;101434.06;4490678;28;20054;-52
2023/12/19 01:28:10;;;;;;;0.65;0.57;;;;;;;21.65;43.07;101438.97;4490641;28;20395;-51
2023/12/19 01:30:20;;;;;;;0.65;0.65;;;;;;;21.67;41.63;101442.34;4490645;28;20034;-53
2023/12/19 01:32:31;;;;;;;0.60;0.60;;;;;;;21.66;39.62;101446.38;4490786;28;20559;-53
2023/12/19 01:34:41;;;;;;;0.60;0.60;;;;;;;21.67;42.08;101442.34;4489985;28;20945;-52
2023/12/19 01:36:54;;;;;;;0.65;0.65;;;;;;;21.71;43.34;101437.53;4489880;28;20558;-51
2023/12/19 01:39:04;;;;;;;0.60;0.60;;;;;;;21.70;43.80;101435.88;4489685;28;20046;-53
2023/12/19 01:41:15;;;;;;;0.50;0.50;;;;;;;21.66;44.26;101419.72;4490125;28;20038;-52
2023/12/19 01:43:25;;;;;;;0.50;0.50;;;;;;;21.66;44.62;101413.97;4490078;28;20030;-54
2023/12/19 01:45:35;;;;;;;0.55;0.52;;;;;;;21.67;44.37;101419.34;4490568;28;20530;-54
2023/12/19 01:47:46;;;;;;;0.50;0.50;;;;;;;21.66;44.24;101417.66;4490431;28;23177;-52
2023/12/19 01:49:57;;;;;;;0.60;0.60;;;;;;;21.67;44.12;101418.50;4489102;28;20046;-54
2023/12/19 01:52:07;;;;;;;0.68;0.68;;;;;;;21.64;42.95;101408.56;4490380;28;20045;-53
2023/12/19 01:54:20;;;;;;;0.90;0.75;;;;;;;21.65;43.03;101410.25;4490128;28;20608;-53
2023/12/19 01:56:32;;;;;;;0.77;0.70;;;;;;;21.63;44.44;101412.63;4490055;28;20574;-51
2023/12/19 01:58:43;;;;;;;0.50;0.50;;;;;;;21.64;43.72;101408.56;4487917;28;20038;-53
2023/12/19 02:00:54;;;;;;;0.68;0.60;;;;;;;21.64;42.47;101408.56;4490243;28;20041;-53
2023/12/19 02:03:05;;;;;;;0.77;0.70;;;;;;;21.65;44.02;101409.38;4490295;28;20037;-54
2023/12/19 02:05:16;;;;;;;0.57;0.57;;;;;;;21.64;44.47;101408.56;4490109;28;20053;-52
2023/12/19 02:07:26;;;;;;;0.63;0.60;;;;;;;21.65;44.07;101398.75;4490999;28;20029;-53
2023/12/19 02:09:36;;;;;;;0.50;0.50;;;;;;;21.66;44.18;101386.03;4489821;28;20372;-51
2023/12/19 02:11:47;;;;;;;0.60;0.60;;;;;;;21.67;43.66;101376.25;4489621;28;20502;-53
2023/12/19 02:13:58;;;;;;;0.60;0.60;;;;;;;21.66;42.67;101370.88;4490078;28;20446;-51
2023/12/19 02:16:08;;;;;;;0.60;0.60;;;;;;;21.66;42.90;101371.69;4489987;28;20026;-53
2023/12/19 02:18:20;;;;;;;0.70;0.70;;;;;;;21.66;43.89;101365.94;4489519;28;20049;-51
2023/12/19 02:20:30;;;;;;;0.80;0.60;;;;;;;21.65;44.35;101372.88;4490362;28;20174;-53
2023/12/19 02:22:41;;;;;;;0.70;0.70;;;;;;;21.67;43.16;101372.53;4489642;28;20109;-51
2023/12/19 02:24:51;;;;;;;0.60;0.60;;;;;;;21.67;42.62;101373.38;4489329;28;20053;-54
2023/12/19 02:27:03;;;;;;;0.50;0.50;;;;;;;21.67;42.92;101373.38;4489302;28;20121;-52
2023/12/19 02:29:13;;;;;;;0.60;0.60;;;;;;;21.64;43.70;101368.34;4490126;28;20644;-53
2023/12/19 02:31:24;;;;;;;0.60;0.60;;;;;;;21.65;44.23;101352.78;4489749;28;20903;-51
2023/12/19 02:33:34;;;;;;;0.60;0.60;;;;;;;21.66;44.84;101347.88;4489456;28;20513;-52
2023/12/19 02:35:44;;;;;;;0.60;0.57;;;;;;;21.66;44.96;101342.94;4490117;28;20043;-55
2023/12/19 02:37:55;;;;;;;1.35;1.00;;;;;;;21.42;40.96;101337.16;4489795;28;20384;-51
2023/12/19 02:40:06;;;;;;;2.00;1.80;;;;;;;21.25;34.18;101320.13;4488799;28;22160;-53
2023/12/19 02:42:16;;;;;;;1.90;1.70;;;;;;;21.16;33.58;101322.25;4489737;28;20133;-53
2023/12/19 02:44:26;;;;;;;2.20;1.80;;;;;;;21.11;33.56;101313.00;4490275;28;20034;-52
2023/12/19 02:46:37;;;;;;;2.13;1.80;;;;;;;21.08;33.67;101313.72;4488719;28;22240;-52
2023/12/19 02:48:47;;;;;;;1.83;1.70;;;;;;;21.04;33.68;101319.31;4489336;28;20034;-54
2023/12/19 02:50:58;;;;;;;1.85;1.67;;;;;;;21.02;33.60;101312.28;4490121;28;20046;-53
2023/12/19 02:53:08;;;;;;;1.73;1.58;;;;;;;21.00;34.15;101311.78;4488882;28;20118;-54
2023/12/19 02:55:18;;;;;;;2.00;1.70;;;;;;;20.99;33.75;101305.22;4489155;28;20093;-54
2023/12/19 02:57:29;;;;;;;1.50;1.40;;;;;;;20.97;34.27;101299.00;4489347;28;20042;-52
2023/12/19 02:59:39;;;;;;;1.50;1.40;;;;;;;20.95;34.27;101298.47;4489500;28;20061;-52
2023/12/19 03:01:49;;;;;;;1.95;1.75;;;;;;;20.93;34.19;101289.34;4488608;28;25929;-53
2023/12/19 03:04:00;;;;;;;1.50;1.40;;;;;;;20.93;34.23;101289.34;4489262;28;20049;-52
2023/12/19 03:06:14;;;;;;;1.63;1.45;;;;;;;20.92;34.17;101286.84;4488629;28;20053;-51
2023/12/19 03:08:24;;;;;;;1.70;1.58;;;;;;;20.91;34.23;101285.19;4488935;28;20120;-51
2023/12/19 03:10:35;;;;;;;2.30;1.70;;;;;;;20.92;34.47;101275.38;4490055;28;20049;-54
2023/12/19 03:12:45;;;;;;;1.40;1.30;;;;;;;20.91;34.68;101274.53;4489407;28;20026;-51
2023/12/19 03:14:55;;;;;;;1.65;1.40;;;;;;;20.90;34.17;101272.84;4489029;28;21104;-54
2023/12/19 03:17:06;;;;;;;1.50;1.40;;;;;;;20.90;34.58;101277.78;4489576;28;20132;-51
2023/12/19 03:19:16;;;;;;;1.70;1.55;;;;;;;20.88;34.77;101275.25;4488500;28;21245;-53
2023/12/19 03:21:27;;;;;;;1.58;1.40;;;;;;;20.89;34.23;101281.81;4489126;28;20031;-54
2023/12/19 03:23:37;;;;;;;1.60;1.50;;;;;;;20.89;34.60;101278.94;4489619;28;20041;-53
2023/12/19 03:25:48;;;;;;;1.48;1.38;;;;;;;20.88;34.59;101280.16;4489645;28;20045;-55
2023/12/19 03:27:58;;;;;;;1.88;1.50;;;;;;;20.88;34.82;101280.16;4488787;28;20030;-53
2023/12/19 03:30:09;;;;;;;1.52;1.40;;;;;;;20.87;34.81;101273.56;4489495;28;20042;-51
2023/12/19 03:32:19;;;;;;;2.08;1.60;;;;;;;20.87;34.28;101272.75;4489172;28;20050;-51
2023/12/19 03:34:30;;;;;;;2.33;1.63;;;;;;;20.87;34.65;101272.75;4488865;28;20042;-53
2023/12/19 03:36:40;;;;;;;1.60;1.40;;;;;;;20.87;34.53;101267.00;4489334;28;20043;-51
2023/12/19 03:38:51;;;;;;;1.70;1.40;;;;;;;20.86;34.42;101263.28;4490012;28;24346;-51
2023/12/19 03:41:01;;;;;;;1.38;1.27;;;;;;;20.85;34.27;101264.47;4492302;28;20045;-53
2023/12/19 03:43:12;;;;;;;1.60;1.40;;;;;;;20.85;34.17;101247.28;4492005;28;20035;-52
2023/12/19 03:45:22;;;;;;;1.33;1.20;;;;;;;20.85;34.42;101247.28;4491917;28;20050;-55
2023/12/19 03:47:33;;;;;;;1.52;1.30;;;;;;;20.85;34.39;101255.88;4491747;28;20026;-52
2023/12/19 03:49:43;;;;;;;1.40;1.23;;;;;;;20.85;34.39;101253.00;4490844;28;20046;-53
2023/12/19 03:51:53;;;;;;;1.10;1.00;;;;;;;20.85;34.23;101253.00;4491286;28;25191;-52
2023/12/19 03:54:04;;;;;;;1.30;1.20;;;;;;;20.85;34.56;101246.41;4491735;28;20039;-51
2023/12/19 03:56:14;;;;;;;1.60;1.35;;;;;;;20.84;34.49;101239.84;4491867;28;20173;-52
2023/12/19 03:58:25;;;;;;;1.38;1.05;;;;;;;20.83;34.46;101233.25;4492052;28;20050;-51
2023/12/19 04:00:35;;;;;;;1.65;1.20;;;;;;;20.83;34.64;101235.31;4491720;28;20026;-54
2023/12/19 04:02:45;;;;;;;1.10;1.00;;;;;;;20.83;34.66;101233.25;4491507;28;20451;-51
2023/12/19 04:04:56;;;;;;;1.10;1.00;;;;;;;20.84;34.96;101228.34;4493289;28;20054;-51
2023/12/19 04:07:07;;;;;;;1.27;1.17;;;;;;;20.83;34.95;101230.38;4491757;28;20037;-55
2023/12/19 04:09:17;;;;;;;0.95;0.93;;;;;;;20.83;35.06;101221.78;4491295;28;20093;-52
2023/12/19 04:11:27;;;;;;;1.00;1.00;;;;;;;20.83;34.67;101218.09;4491201;28;20943;-51
2023/12/19 04:13:38;;;;;;;1.10;1.00;;;;;;;20.83;35.05;101238.16;4492291;28;20387;-52
2023/12/19 04:15:49;;;;;;;1.10;1.00;;;;;;;20.83;34.91;101238.16;4491227;28;20042;-53
2023/12/19 04:18:00;;;;;;;1.20;1.10;;;;;;;20.83;34.75;101229.56;4491183;28;23282;-52
2023/12/19 04:20:11;;;;;;;1.10;1.00;;;;;;;20.82;34.92;101227.88;4490739;28;20070;-51
2023/12/19 04:22:21;;;;;;;0.95;0.93;;;;;;;20.83;35.20;101237.31;4491578;28;20052;-52
2023/12/19 04:24:32;;;;;;;0.82;0.80;;;;;;;20.83;35.15;101238.16;4491961;28;20042;-52
2023/12/19 04:26:42;;;;;;;1.02;1.00;;;;;;;20.81;35.19;101234.81;4491304;28;20475;-51
2023/12/19 04:28:52;;;;;;;0.90;0.90;;;;;;;20.83;34.94;101235.31;4490615;28;20031;-52
2023/12/19 04:31:03;;;;;;;1.38;1.10;;;;;;;20.81;35.15;101229.06;4491272;28;20045;-53
2023/12/19 04:33:13;;;;;;;1.38;1.02;;;;;;;20.81;35.39;101223.34;4491194;28;20031;-55
2023/12/19 04:35:24;;;;;;;1.10;1.00;;;;;;;20.81;34.89;101214.72;4490380;28;23634;-52
2023/12/19 04:37:34;;;;;;;1.42;1.20;;;;;;;20.80;35.34;101190.91;4492248;28;20039;-54
2023/12/19 04:39:44;;;;;;;1.15;0.98;;;;;;;20.81;35.10;101180.28;4490610;28;20158;-51
2023/12/19 04:41:55;;;;;;;1.30;1.20;;;;;;;20.80;34.84;101188.06;4491562;28;20041;-51
2023/12/19 04:44:05;;;;;;;1.20;1.10;;;;;;;20.80;34.76;101181.50;4490879;28;20152;-51
2023/12/19 04:46:16;;;;;;;1.38;1.10;;;;;;;20.80;35.14;101176.56;4491751;28;20524;-54
2023/12/19 04:48:27;;;;;;;1.20;1.10;;;;;;;20.79;35.09;101168.31;4491444;28;20044;-52
2023/12/19 04:50:37;;;;;;;1.50;1.30;;;;;;;20.79;35.31;101169.19;4491061;28;20034;-52
2023/12/19 04:52:48;;;;;;;1.30;1.20;;;;;;;20.78;34.86;101153.16;4490982;28;20031;-51
2023/12/19 04:54:59;;;;;;;1.23;1.00;;;;;;;20.79;35.28;101156.84;4490872;28;20038;-53
2023/12/19 04:57:09;;;;;;;1.20;1.10;;;;;;;20.79;35.00;101156.84;4490772;28;20034;-53
2023/12/19 04:59:19;;;;;;;1.15;1.08;;;;;;;20.78;35.38;101152.31;4490955;28;20121;-51
2023/12/19 05:01:30;;;;;;;1.02;1.00;;;;;;;20.77;34.94;101159.25;4491080;28;20026;-54
2023/12/19 05:03:41;;;;;;;1.20;1.10;;;;;;;20.78;34.97;101158.91;4490633;28;20636;-51
2023/12/19 05:05:52;;;;;;;1.20;1.10;;;;;;;20.78;35.20;101152.31;4491053;28;20038;-51
2023/12/19 05:08:02;;;;;;;1.20;1.10;;;;;;;20.78;34.99;101144.56;4506013;28;20064;-51
2023/12/19 05:10:13;;;;;;;1.27;1.17;;;;;;;20.79;35.33;101139.63;4490592;28;20379;-51
2023/12/19 05:12:24;;;;;;;1.20;1.10;;;;;;;20.77;34.96;101154.34;4490911;28;20110;-51
2023/12/19 05:14:34;;;;;;;0.98;0.93;;;;;;;20.78;35.09;101152.31;4491604;28;20577;-51
2023/12/19 05:16:44;;;;;;;1.10;1.00;;;;;;;20.78;35.40;101149.44;4490172;28;20096;-53
2023/12/19 05:18:55;;;;;;;1.30;1.20;;;;;;;20.78;34.94;101137.97;4489972;28;31689;-53
2023/12/19 05:21:05;;;;;;;1.33;1.20;;;;;;;20.77;35.52;101128.53;4490762;28;20038;-52
2023/12/19 05:23:16;;;;;;;1.55;1.40;;;;;;;20.77;35.48;101133.44;4490655;28;20029;-51
2023/12/19 05:25:26;;;;;;;1.25;1.15;;;;;;;20.77;35.22;101127.69;4490250;28;20053;-51
2023/12/19 05:27:39;;;;;;;1.30;1.20;;;;;;;20.77;35.41;101127.69;4490465;28;20092;-51
2023/12/19 05:29:50;;;;;;;2.42;1.77;;;;;;;20.77;35.16;101116.22;4490050;28;20038;-53
2023/12/19 05:32:00;;;;;;;1.60;1.40;;;;;;;20.76;35.32;101111.66;4490788;28;20023;-51
2023/12/19 05:34:10;;;;;;;1.30;1.20;;;;;;;20.77;35.04;101110.50;4491775;28;20055;-53
2023/12/19 05:36:22;;;;;;;1.40;1.30;;;;;;;20.75;35.39;101105.13;4490187;28;20022;-51
2023/12/19 05:38:32;;;;;;;1.73;1.30;;;;;;;20.77;35.39;101102.69;4490596;28;20132;-51
2023/12/19 05:40:42;;;;;;;1.20;1.10;;;;;;;20.76;35.35;101094.44;4490628;28;20040;-52
2023/12/19 05:42:58;;;;;;;1.73;1.15;;;;;;;20.76;35.55;101088.72;4490001;28;20923;-52
2023/12/19 05:45:08;;;;;;;1.38;1.20;;;;;;;20.76;35.29;101069.47;4490482;28;20042;-53
2023/12/19 05:47:19;;;;;;;1.30;1.20;;;;;;;20.75;35.54;101067.81;4490330;28;20038;-52
2023/12/19 05:49:29;;;;;;;1.52;1.40;;;;;;;20.75;35.16;101070.69;4489784;28;31224;-51
2023/12/19 05:51:40;;;;;;;1.42;1.33;;;;;;;20.76;35.19;101054.28;4490348;28;20038;-52
2023/12/19 05:53:50;;;;;;;1.40;1.30;;;;;;;20.75;35.10;101049.75;4490060;28;20038;-51
2023/12/19 05:56:01;;;;;;;1.08;0.98;;;;;;;20.74;35.18;101046.03;4490493;28;20038;-54
2023/12/19 05:58:11;;;;;;;1.50;0.98;;;;;;;20.73;35.27;101049.28;4489367;28;20026;-51
2023/12/19 06:00:22;;;;;;;1.30;1.20;;;;;;;20.74;35.22;101048.06;4489161;28;20097;-51
2023/12/19 06:02:32;;;;;;;1.27;1.17;;;;;;;20.74;35.44;101062.41;4489530;28;20411;-51
2023/12/19 06:04:42;;;;;;;1.23;1.13;;;;;;;20.75;35.24;101066.97;4490185;28;20360;-53
2023/12/19 06:06:53;;;;;;;1.20;1.10;;;;;;;20.74;35.59;101074.72;4490091;28;20035;-53
2023/12/19 06:09:05;;;;;;;1.20;1.10;;;;;;;20.75;34.95;101079.28;4490573;28;20134;-51
2023/12/19 06:11:26;;;;;;;1.40;1.30;;;;;;;20.74;35.62;101080.47;4488524;28;20034;-53
2023/12/19 06:13:36;;;;;;;1.38;1.27;;;;;;;20.74;35.23;101083.34;4490672;28;20034;-54
2023/12/19 06:15:47;;;;;;;1.50;1.40;;;;;;;20.76;35.23;101091.59;4490412;28;20027;-52
2023/12/19 06:17:57;;;;;;;1.30;1.20;;;;;;;20.76;35.45;101082.97;4489597;28;20108;-51
2023/12/19 06:20:11;;;;;;;1.70;1.60;;;;;;;20.76;35.35;101077.25;4489606;28;20121;-52
2023/12/19 06:22:21;;;;;;;1.60;1.50;;;;;;;20.77;35.50;101078.94;4489871;28;20045;-52
2023/12/19 06:24:31;;;;;;;1.30;1.17;;;;;;;20.77;35.37;101070.31;4489312;28;20045;-54
2023/12/19 06:26:42;;;;;;;1.30;1.10;;;;;;;20.76;35.16;101075.22;4489466;28;20405;-53
2023/12/19 06:28:53;;;;;;;1.80;1.40;;;;;;;20.77;35.72;101076.06;4489523;28;20035;-53
2023/12/19 06:31:03;;;;;;;1.63;1.38;;;;;;;20.77;35.28;101056.78;4489968;28;20494;-51
2023/12/19 06:33:14;;;;;;;1.33;1.20;;;;;;;20.77;35.46;101062.53;4490091;28;20023;-52
2023/12/19 06:35:27;;;;;;;1.52;1.42;;;;;;;20.78;35.49;101054.78;4489194;28;20046;-53
2023/12/19 06:37:37;;;;;;;1.50;1.40;;;;;;;20.77;35.28;101047.38;4487902;28;20041;-51
2023/12/19 06:39:48;;;;;;;1.65;1.52;;;;;;;20.79;35.55;101044.97;4488647;28;20072;-53
2023/12/19 06:41:58;;;;;;;1.40;1.30;;;;;;;20.79;35.53;101044.97;4489676;28;20022;-51
2023/12/19 06:44:08;;;;;;;1.60;1.40;;;;;;;20.77;35.80;101039.59;4489280;28;20042;-51
2023/12/19 06:46:19;;;;;;;1.13;0.98;;;;;;;20.79;35.90;101042.09;4489239;28;20049;-51
2023/12/19 06:48:30;;;;;;;1.30;1.20;;;;;;;20.80;35.54;101043.78;4489460;28;20043;-51
2023/12/19 06:50:40;;;;;;;1.45;1.20;;;;;;;20.79;35.75;101036.34;4490028;28;20136;-52
2023/12/19 06:52:51;;;;;;;1.23;1.13;;;;;;;20.79;35.82;101047.84;4489126;28;20118;-52
2023/12/19 06:55:01;;;;;;;1.35;1.25;;;;;;;20.79;36.17;101044.97;4490077;28;20035;-52
2023/12/19 06:57:12;;;;;;;1.33;1.23;;;;;;;20.80;35.99;101035.19;4489783;28;20499;-52
2023/12/19 06:59:24;;;;;;;1.50;1.40;;;;;;;20.77;36.20;101030.97;4489204;28;20041;-53
2023/12/19 07:01:35;;;;;;;1.40;1.30;;;;;;;20.78;35.79;101035.53;4489626;28;21154;-51
2023/12/19 07:03:45;;;;;;;1.50;1.40;;;;;;;20.81;36.19;101039.72;4489790;28;20018;-51
2023/12/19 07:05:56;;;;;;;1.40;1.20;;;;;;;20.78;36.11;101029.81;4488911;28;20394;-51
2023/12/19 07:08:07;;;;;;;1.15;1.05;;;;;;;20.78;36.33;101032.66;4488773;28;20062;-51
2023/12/19 07:10:18;;;;;;;1.30;1.20;;;;;;;20.80;36.32;101029.44;4488675;28;20062;-52
2023/12/19 07:12:29;;;;;;;1.15;1.05;;;;;;;20.79;36.06;101024.88;4489879;28;20089;-51
2023/12/19 07:14:41;;;;;;;1.15;1.05;;;;;;;20.78;35.93;101024.06;4492082;28;20027;-51
2023/12/19 07:16:51;;;;;;;1.13;1.02;;;;;;;20.81;36.35;101019.63;4491978;28;20085;-53
2023/12/19 07:19:03;;;;;;;1.30;1.20;;;;;;;20.81;36.02;101011.03;4491926;28;20076;-52
2023/12/19 07:21:24;;;;;;;1.20;1.08;;;;;;;20.82;36.47;101014.75;4491854;28;20065;-50
2023/12/19 07:23:34;;;;;;;1.30;1.20;;;;;;;20.80;36.29;101010.19;4491739;28;20586;-53
2023/12/19 07:25:45;;;;;;;2.10;1.13;;;;;;;20.79;36.23;101002.78;4492096;28;20050;-53
2023/12/19 07:27:56;;;;;;;1.20;1.10;;;;;;;20.80;36.19;101003.63;4491164;28;20107;-51
2023/12/19 07:30:07;;;;;;;1.17;1.05;;;;;;;20.81;36.56;101005.28;4491650;28;20366;-50
2023/12/19 07:32:17;;;;;;;1.42;1.15;;;;;;;20.81;36.49;101013.88;4480908;28;20034;-51
2023/12/19 07:34:28;;;;;;;1.48;1.27;;;;;;;20.83;36.38;101016.41;4491715;28;20030;-50
2023/12/19 07:36:38;;;;;;;2.17;1.13;;;;;;;20.82;36.30;101014.75;4491820;28;20579;-54
2023/12/19 07:38:49;;;;;;;1.23;1.13;;;;;;;20.81;36.30;101013.88;4491546;28;20062;-51
2023/12/19 07:41:00;;;;;;;1.00;0.90;;;;;;;20.81;36.23;101005.28;4492177;28;20042;-52
2023/12/19 07:43:10;;;;;;;1.13;1.00;;;;;;;20.83;36.73;101002.91;4492029;28;20038;-51
2023/12/19 07:45:21;;;;;;;1.10;1.00;;;;;;;20.82;36.66;101009.00;4491341;28;24381;-52
2023/12/19 07:47:31;;;;;;;1.05;0.90;;;;;;;20.83;36.58;101002.91;4491993;28;20039;-50
2023/12/19 07:49:41;;;;;;;1.48;1.10;;;;;;;20.82;36.23;101006.94;4491375;28;20042;-53
2023/12/19 07:51:52;;;;;;;1.38;1.20;;;;;;;20.82;36.53;101004.06;4491535;28;20085;-51
2023/12/19 07:54:02;;;;;;;1.75;1.15;;;;;;;20.82;36.47;101004.06;4491186;28;20030;-53
2023/12/19 07:56:13;;;;;;;1.35;1.08;;;;;;;20.83;36.78;100997.16;4491701;28;20038;-50
2023/12/19 07:58:23;;;;;;;1.00;0.90;;;;;;;20.83;36.60;100985.69;4491525;28;20097;-52
2023/12/19 08:00:34;;;;;;;1.10;1.00;;;;;;;20.83;36.42;100984.84;4491650;28;20110;-50
2023/12/19 08:02:49;;;;;;;1.10;1.00;;;;;;;20.83;36.88;100974.22;4491912;28;20058;-54
2023/12/19 08:04:59;;;;;;;1.10;1.00;;;;;;;20.83;36.53;100979.94;4491566;28;20054;-53
2023/12/19 08:07:10;;;;;;;0.90;0.90;;;;;;;20.82;36.55;100978.25;4491695;28;20053;-54
2023/12/19 08:09:20;;;;;;;1.40;1.00;;;;;;;20.84;36.48;100975.88;4491976;28;20122;-52
2023/12/19 08:11:30;;;;;;;1.13;1.00;;;;;;;20.84;36.47;100973.00;4491176;28;20170;-52
2023/12/19 08:13:41;;;;;;;1.10;1.00;;;;;;;20.85;36.85;100965.25;4491135;28;20590;-50
2023/12/19 08:15:52;;;;;;;0.80;0.80;;;;;;;20.86;36.58;100964.88;4491752;28;20050;-56
2023/12/19 08:18:03;;;;;;;1.00;0.90;;;;;;;20.87;36.82;100957.94;4491236;28;20038;-57
2023/12/19 08:20:15;;;;;;;0.85;0.82;;;;;;;20.89;36.54;100949.81;4473058;28;20047;-55
2023/12/19 08:22:25;;;;;;;0.98;0.85;;;;;;;20.88;36.59;100953.88;4491672;28;20034;-58
2023/12/19 08:24:36;;;;;;;1.08;0.98;;;;;;;20.90;36.54;100965.81;4490934;28;20057;-58
2023/12/19 08:26:48;;;;;;;0.90;0.80;;;;;;;20.91;36.72;100958.91;4491085;28;20396;-56
2023/12/19 08:28:58;;;;;;;0.73;0.70;;;;;;;20.91;36.56;100964.63;4490690;28;20086;-56
2023/12/19 08:31:09;;;;;;;0.98;0.80;;;;;;;20.91;36.46;100963.78;4491250;28;20121;-63
2023/12/19 08:33:19;;;;;;;0.80;0.80;;;;;;;20.91;36.72;100964.63;4491082;28;20090;-62
2023/12/19 08:35:30;;;;;;;1.05;0.95;;;;;;;20.93;36.47;100962.22;4491326;28;20030;-63
2023/12/19 08:37:40;;;;;;;1.17;1.08;;;;;;;20.94;36.45;100945.84;4491101;28;20490;-64
2023/12/19 08:39:54;;;;;;;1.35;1.00;;;;;;;20.95;36.45;100954.09;4490652;28;20122;-55
2023/12/19 08:42:04;;;;;;;0.70;0.70;;;;;;;20.96;36.21;100955.81;4491069;28;20148;-56
2023/12/19 08:44:15;;;;;;;1.10;0.90;;;;;;;20.96;36.64;100958.69;4497743;28;20145;-57
2023/12/19 08:46:25;;;;;;;1.13;1.02;;;;;;;20.94;36.25;100949.56;4490806;28;20046;-53
2023/12/19 08:48:36;;;;;;;1.20;1.10;;;;;;;20.94;36.71;100943.84;4491125;28;20042;-58
2023/12/19 08:50:46;;;;;;;0.70;0.70;;;;;;;20.93;36.20;100945.00;4491214;28;20118;-56
2023/12/19 08:52:57;;;;;;;0.60;0.60;;;;;;;20.95;36.31;100942.63;4490373;28;20096;-56
2023/12/19 08:55:10;;;;;;;0.75;0.68;;;;;;;20.94;36.47;100932.34;4479498;28;20031;-57
2023/12/19 08:57:20;;;;;;;0.70;0.70;;;;;;;20.92;36.50;100934.75;4491371;28;20065;-56
2023/12/19 08:59:31;;;;;;;0.80;0.70;;;;;;;20.93;36.59;100926.97;4490673;28;20038;-55
2023/12/19 09:01:41;;;;;;;0.60;0.60;;;;;;;20.92;36.44;100923.25;4490766;28;20088;-56
2023/12/19 09:03:52;;;;;;;0.70;0.70;;;;;;;20.92;36.34;100937.59;4491094;28;20120;-57
2023/12/19 09:06:03;;;;;;;0.85;0.80;;;;;;;20.91;36.42;100935.94;4491441;28;20046;-56
2023/12/19 09:08:14;;;;;;;0.80;0.80;;;;;;;20.92;36.19;100931.88;4490215;28;20153;-54
2023/12/19 09:10:24;;;;;;;1.42;1.33;;;;;;;20.91;36.12;100930.22;4490652;28;20034;-57
2023/12/19 09:12:36;;;;;;;0.90;0.80;;;;;;;20.91;36.13;100935.09;4490848;28;20034;-56
2023/12/19 09:14:46;;;;;;;1.15;0.80;;;;;;;20.92;36.04;100939.63;4491143;28;20167;-56
2023/12/19 09:16:56;;;;;;;0.93;0.93;;;;;;;20.91;36.44;100941.69;4490387;28;20154;-54
2023/12/19 09:19:07;;;;;;;1.10;1.00;;;;;;;20.90;36.43;100940.00;4490431;28;20327;-56
2023/12/19 09:21:17;;;;;;;0.90;0.80;;;;;;;20.91;36.36;100937.97;4490104;28;20049;-55
2023/12/19 09:23:28;;;;;;;1.08;0.98;;;;;;;20.90;36.65;100934.25;4490548;28;20046;-57
2023/12/19 09:25:38;;;;;;;0.60;0.60;;;;;;;20.91;36.76;100926.50;4490549;28;20154;-57
2023/12/19 09:27:48;;;;;;;0.70;0.70;;;;;;;20.89;36.42;100926.00;4490407;28;20105;-56
2023/12/19 09:29:59;;;;;;;0.50;0.50;;;;;;;20.90;36.37;100914.16;4491463;28;20096;-56
2023/12/19 09:32:09;;;;;;;0.73;0.70;;;;;;;20.89;36.43;100903.91;4490690;28;20033;-56
2023/12/19 09:34:20;;;;;;;0.70;0.63;;;;;;;20.89;36.87;100903.91;4490712;28;20038;-54
2023/12/19 09:36:30;;;;;;;0.85;0.70;;;;;;;20.89;36.35;100892.44;4488788;28;20502;-53
2023/12/19 09:38:41;;;;;;;0.70;0.70;;;;;;;20.89;36.74;100895.28;4490151;28;20041;-56
2023/12/19 09:40:51;;;;;;;0.60;0.60;;;;;;;20.90;36.75;100891.22;4490209;28;20030;-56
2023/12/19 09:43:02;;;;;;;0.80;0.73;;;;;;;20.89;36.65;100895.28;4489927;28;20038;-56
2023/12/19 09:45:14;;;;;;;0.52;0.52;;;;;;;20.90;36.76;100887.53;4490252;28;20047;-57
2023/12/19 09:47:25;;;;;;;0.75;0.60;;;;;;;20.89;36.99;100886.69;4490304;28;20039;-55
2023/12/19 09:49:39;;;;;;;0.68;0.60;;;;;;;20.89;36.73;100894.44;4490464;28;20046;-57
2023/12/19 09:51:55;;;;;;;0.80;0.70;;;;;;;20.91;36.53;100890.03;4490156;28;20039;-57
2023/12/19 09:54:06;;;;;;;0.50;0.50;;;;;;;20.92;36.87;100891.69;4504915;28;20172;-57
2023/12/19 09:56:17;;;;;;;0.88;0.60;;;;;;;20.89;36.66;100880.94;4490155;28;20121;-57
2023/12/19 09:58:31;;;;;;;0.50;0.50;;;;;;;20.93;36.41;100881.88;4463876;28;20031;-57
2023/12/19 10:00:45;;;;;;;0.55;0.40;;;;;;;20.93;36.95;100873.28;4489860;28;20482;-58
2023/12/19 10:02:55;;;;;;;0.52;0.50;;;;;;;20.95;36.56;100873.75;4489490;28;20949;-58
2023/12/19 10:05:08;;;;;;;0.50;0.50;;;;;;;20.97;36.96;100867.69;4490500;28;20038;-58
2023/12/19 10:07:18;;;;;;;0.75;0.60;;;;;;;20.97;36.83;100859.91;4490220;28;20045;-56